createdAt,value
2023-03-07T00:00:19.834Z,73.97
2023-03-07T00:01:27.206Z,73.99
2023-03-07T00:02:32.400Z,74.22
2023-03-07T00:03:37.066Z,74.15
2023-03-07T00:04:45.052Z,74.28
2023-03-07T00:05:49.065Z,74.46
2023-03-07T00:06:56.027Z,74.20
2023-03-07T00:07:59.950Z,74.12
2023-03-07T00:09:06.816Z,74.32
2023-03-07T00:10:14.528Z,74.27
2023-03-07T00:11:19.857Z,74.52
2023-03-07T00:12:24.622Z,74.53
2023-03-07T00:13:34.639Z,74.27
2023-03-07T00:14:38.529Z,74.46
2023-03-07T00:15:42.345Z,74.34
2023-03-07T00:16:52.064Z,74.07
2023-03-07T00:17:56.230Z,74.07
2023-03-07T00:19:00.941Z,74.23
2023-03-07T00:20:09.688Z,74.18
2023-03-07T00:21:20.841Z,74.03
2023-03-07T00:22:25.317Z,74.21
2023-03-07T00:23:29.591Z,74.15
2023-03-07T00:24:34.201Z,74.12
2023-03-07T00:25:38.189Z,74.18
2023-03-07T00:26:45.529Z,73.92
2023-03-07T00:27:49.438Z,73.89
2023-03-07T00:28:55.680Z,73.93
2023-03-07T00:29:59.615Z,74.02
2023-03-07T00:31:11.879Z,74.12
2023-03-07T00:32:15.794Z,74.05
2023-03-07T00:33:19.750Z,74.09
2023-03-07T00:34:23.732Z,73.99
2023-03-07T00:35:27.461Z,73.99
2023-03-07T00:36:31.562Z,73.81
2023-03-07T00:37:35.311Z,73.73
2023-03-07T00:38:39.460Z,73.75
2023-03-07T00:39:43.455Z,73.81
2023-03-07T00:40:47.309Z,74.02
2023-03-07T00:41:50.927Z,73.91
2023-03-07T00:42:54.792Z,73.71
2023-03-07T00:43:58.713Z,73.84
2023-03-07T00:45:02.763Z,73.76
2023-03-07T00:46:14.161Z,73.80
2023-03-07T00:47:18.056Z,73.70
2023-03-07T00:48:23.463Z,73.80
2023-03-07T00:49:27.708Z,73.70
2023-03-07T00:50:31.545Z,73.71
2023-03-07T00:51:35.795Z,73.85
2023-03-07T00:52:39.474Z,73.88
2023-03-07T00:53:44.278Z,73.44
2023-03-07T00:54:48.072Z,73.45
2023-03-07T00:56:09.141Z,73.75
2023-03-07T00:57:13.091Z,73.45
2023-03-07T00:58:16.786Z,73.32
2023-03-07T00:59:20.883Z,73.42
2023-03-07T01:00:25.229Z,73.00
2023-03-07T01:01:29.051Z,73.13
2023-03-07T01:02:32.830Z,73.16
2023-03-07T01:03:37.304Z,73.39
2023-03-07T01:04:41.006Z,73.39
2023-03-07T01:05:45.622Z,73.47
2023-03-07T01:06:50.626Z,73.47
2023-03-07T01:07:54.761Z,73.36
2023-03-07T01:09:03.199Z,73.31
2023-03-07T01:10:09.387Z,73.48
2023-03-07T01:11:14.918Z,73.44
2023-03-07T01:12:20.283Z,73.32
2023-03-07T01:13:24.409Z,73.36
2023-03-07T01:14:28.084Z,73.52
2023-03-07T01:15:32.403Z,73.56
2023-03-07T01:16:38.820Z,73.37
2023-03-07T01:17:42.805Z,73.65
2023-03-07T01:18:51.940Z,73.60
2023-03-07T01:19:55.636Z,73.44
2023-03-07T01:20:59.344Z,73.82
2023-03-07T01:22:03.288Z,73.72
2023-03-07T01:23:11.217Z,73.83
2023-03-07T01:24:16.655Z,73.95
2023-03-07T01:25:20.776Z,73.78
2023-03-07T01:26:29.149Z,73.89
2023-03-07T01:27:33.430Z,73.85
2023-03-07T01:28:37.672Z,73.97
2023-03-07T01:29:41.516Z,73.48
2023-03-07T01:30:45.465Z,73.53
2023-03-07T01:31:49.396Z,73.45
2023-03-07T01:32:59.042Z,73.55
2023-03-07T01:34:04.289Z,73.36
2023-03-07T01:35:15.127Z,73.33
2023-03-07T01:36:30.760Z,73.66
2023-03-07T01:37:34.884Z,73.21
2023-03-07T01:38:38.711Z,73.29
2023-03-07T01:39:43.167Z,73.16
2023-03-07T01:40:47.438Z,73.19
2023-03-07T01:41:51.070Z,73.10
2023-03-07T01:42:55.032Z,73.04
2023-03-07T01:44:00.957Z,73.11
2023-03-07T01:45:28.095Z,73.01
2023-03-07T01:46:49.098Z,72.75
2023-03-07T01:47:52.775Z,72.62
2023-03-07T01:49:05.915Z,72.76
2023-03-07T01:50:17.974Z,72.52
2023-03-07T01:51:23.000Z,72.57
2023-03-07T01:52:41.944Z,72.31
2023-03-07T01:53:50.917Z,72.85
2023-03-07T01:55:09.693Z,72.88
2023-03-07T01:56:13.823Z,72.88
2023-03-07T01:57:23.794Z,73.10
2023-03-07T01:58:27.630Z,72.80
2023-03-07T01:59:37.117Z,72.91
2023-03-07T02:00:44.775Z,72.81
2023-03-07T02:01:53.264Z,73.03
2023-03-07T02:03:29.413Z,72.95
2023-03-07T02:04:45.100Z,72.47
2023-03-07T02:06:14.187Z,72.71
2023-03-07T02:07:25.197Z,72.55
2023-03-07T02:08:34.263Z,72.76
2023-03-07T02:09:40.920Z,72.68
2023-03-07T02:10:49.022Z,72.34
2023-03-07T02:11:53.179Z,72.25
2023-03-07T02:12:56.819Z,72.29
2023-03-07T02:14:00.639Z,72.50
2023-03-07T02:15:12.898Z,72.42
2023-03-07T02:16:17.103Z,72.48
2023-03-07T02:17:21.359Z,72.46
2023-03-07T02:18:30.249Z,72.56
2023-03-07T02:20:12.996Z,72.47
2023-03-07T02:21:22.919Z,72.60
2023-03-07T02:22:27.891Z,72.63
2023-03-07T02:23:52.117Z,72.89
2023-03-07T02:25:23.574Z,72.55
2023-03-07T02:26:32.172Z,72.52
2023-03-07T02:27:39.570Z,72.44
2023-03-07T02:28:46.644Z,72.32
2023-03-07T02:29:50.721Z,72.27
2023-03-07T02:31:05.883Z,72.11
2023-03-07T02:32:11.845Z,72.25
2023-03-07T02:33:15.808Z,72.25
2023-03-07T02:34:26.306Z,72.02
2023-03-07T02:35:30.108Z,71.88
2023-03-07T02:36:36.605Z,72.29
2023-03-07T02:37:44.615Z,71.86
2023-03-07T02:38:52.962Z,71.87
2023-03-07T02:40:01.860Z,71.89
2023-03-07T02:41:12.044Z,72.09
2023-03-07T02:42:26.547Z,71.89
2023-03-07T02:43:30.420Z,71.66
2023-03-07T02:44:34.425Z,71.90
2023-03-07T02:45:38.206Z,72.06
2023-03-07T02:46:42.143Z,72.03
2023-03-07T02:47:46.623Z,71.83
2023-03-07T02:48:50.615Z,71.81
2023-03-07T02:49:54.761Z,72.05
2023-03-07T02:50:58.767Z,71.88
2023-03-07T02:52:03.130Z,71.79
2023-03-07T02:53:10.723Z,71.87
2023-03-07T02:54:15.512Z,71.95
2023-03-07T02:55:19.650Z,72.17
2023-03-07T02:56:23.976Z,71.94
2023-03-07T02:57:27.999Z,71.96
2023-03-07T02:58:31.884Z,72.13
2023-03-07T02:59:35.955Z,71.96
2023-03-07T03:00:39.846Z,72.04
2023-03-07T03:01:43.981Z,72.06
2023-03-07T03:02:47.698Z,71.75
2023-03-07T03:03:51.610Z,72.07
2023-03-07T03:04:55.680Z,71.73
2023-03-07T03:05:59.788Z,71.74
2023-03-07T03:07:04.103Z,71.56
2023-03-07T03:08:12.759Z,72.03
2023-03-07T03:09:16.737Z,71.91
2023-03-07T03:10:20.574Z,71.76
2023-03-07T03:11:24.572Z,71.80
2023-03-07T03:12:28.103Z,71.58
2023-03-07T03:13:31.814Z,71.92
2023-03-07T03:14:35.350Z,71.74
2023-03-07T03:15:39.070Z,71.66
2023-03-07T03:16:42.873Z,71.75
2023-03-07T03:17:46.917Z,71.84
2023-03-07T03:18:50.626Z,71.93
2023-03-07T03:19:54.214Z,72.10
2023-03-07T03:20:58.139Z,72.03
2023-03-07T03:22:02.469Z,71.96
2023-03-07T03:23:10.083Z,71.66
2023-03-07T03:24:14.670Z,71.76
2023-03-07T03:25:19.126Z,72.16
2023-03-07T03:26:22.745Z,71.87
2023-03-07T03:27:26.736Z,72.05
2023-03-07T03:28:31.967Z,72.01
2023-03-07T03:29:36.058Z,71.83
2023-03-07T03:30:40.423Z,71.95
2023-03-07T03:31:45.364Z,71.70
2023-03-07T03:32:49.049Z,71.95
2023-03-07T03:33:53.276Z,72.08
2023-03-07T03:34:56.885Z,71.76
2023-03-07T03:36:13.263Z,71.96
2023-03-07T03:37:17.243Z,72.10
2023-03-07T03:38:21.135Z,71.87
2023-03-07T03:39:25.079Z,72.10
2023-03-07T03:40:28.717Z,72.32
2023-03-07T03:41:32.518Z,71.86
2023-03-07T03:42:36.288Z,72.22
2023-03-07T03:43:40.617Z,71.93
2023-03-07T03:44:44.289Z,72.18
2023-03-07T03:45:58.490Z,72.28
2023-03-07T03:47:02.414Z,72.12
2023-03-07T03:48:08.514Z,72.33
2023-03-07T03:49:13.878Z,72.17
2023-03-07T03:50:18.298Z,71.97
2023-03-07T03:51:24.180Z,72.09
2023-03-07T03:52:28.098Z,72.40
2023-03-07T03:53:34.339Z,72.31
2023-03-07T03:54:38.196Z,72.25
2023-03-07T03:55:42.393Z,72.34
2023-03-07T03:56:46.101Z,72.50
2023-03-07T03:57:50.156Z,72.31
2023-03-07T03:58:57.865Z,72.56
2023-03-07T04:00:01.435Z,72.27
2023-03-07T04:01:09.799Z,72.56
2023-03-07T04:02:14.198Z,72.58
2023-03-07T04:03:17.936Z,72.54
2023-03-07T04:04:23.093Z,72.49
2023-03-07T04:05:27.222Z,72.59
2023-03-07T04:06:35.030Z,72.94
2023-03-07T04:07:39.364Z,73.03
2023-03-07T04:08:43.312Z,72.97
2023-03-07T04:09:47.050Z,72.98
2023-03-07T04:10:50.736Z,73.20
2023-03-07T04:11:54.832Z,73.12
2023-03-07T04:12:58.492Z,72.86
2023-03-07T04:14:02.693Z,72.93
2023-03-07T04:15:12.827Z,73.06
2023-03-07T04:16:18.229Z,73.19
2023-03-07T04:17:22.193Z,73.05
2023-03-07T04:18:26.100Z,72.86
2023-03-07T04:19:29.691Z,72.72
2023-03-07T04:20:33.557Z,73.16
2023-03-07T04:21:37.426Z,72.80
2023-03-07T04:22:41.338Z,72.98
2023-03-07T04:23:44.942Z,73.00
2023-03-07T04:24:48.554Z,72.79
2023-03-07T04:25:58.744Z,72.70
2023-03-07T04:27:02.477Z,72.84
2023-03-07T04:28:09.541Z,73.13
2023-03-07T04:29:13.649Z,72.75
2023-03-07T04:30:17.559Z,73.17
2023-03-07T04:31:27.619Z,72.88
2023-03-07T04:32:31.627Z,73.14
2023-03-07T04:33:38.574Z,72.97
2023-03-07T04:34:42.679Z,72.91
2023-03-07T04:35:46.976Z,73.14
2023-03-07T04:36:51.028Z,72.85
2023-03-07T04:37:54.613Z,73.31
2023-03-07T04:38:58.249Z,73.39
2023-03-07T04:40:02.260Z,73.19
2023-03-07T04:41:13.686Z,72.87
2023-03-07T04:42:18.539Z,72.85
2023-03-07T04:43:22.912Z,73.03
2023-03-07T04:44:27.063Z,72.64
2023-03-07T04:45:37.449Z,72.50
2023-03-07T04:46:41.977Z,72.80
2023-03-07T04:47:45.750Z,72.66
2023-03-07T04:48:49.380Z,72.64
2023-03-07T04:49:53.057Z,72.43
2023-03-07T04:50:57.079Z,72.55
2023-03-07T04:52:00.866Z,72.50
2023-03-07T04:53:08.018Z,72.76
2023-03-07T04:54:13.074Z,72.60
2023-03-07T04:55:17.072Z,72.78
2023-03-07T04:56:20.849Z,72.56
2023-03-07T04:57:24.489Z,72.49
2023-03-07T04:58:29.932Z,72.87
2023-03-07T04:59:36.547Z,72.42
2023-03-07T05:00:45.832Z,72.59
2023-03-07T05:01:49.645Z,72.49
2023-03-07T05:02:58.791Z,72.71
2023-03-07T05:04:03.150Z,72.82
2023-03-07T05:05:13.341Z,72.77
2023-03-07T05:06:17.707Z,72.74
2023-03-07T05:07:21.249Z,72.49
2023-03-07T05:08:24.888Z,72.68
2023-03-07T05:09:28.674Z,72.61
2023-03-07T05:10:34.256Z,72.34
2023-03-07T05:11:37.852Z,72.70
2023-03-07T05:12:41.450Z,72.63
2023-03-07T05:13:45.548Z,72.63
2023-03-07T05:14:49.295Z,72.27
2023-03-07T05:15:55.330Z,72.48
2023-03-07T05:16:58.969Z,72.43
2023-03-07T05:18:03.151Z,72.54
2023-03-07T05:19:10.767Z,72.25
2023-03-07T05:20:14.685Z,72.25
2023-03-07T05:21:18.332Z,72.59
2023-03-07T05:22:22.155Z,72.57
2023-03-07T05:23:27.101Z,72.47
2023-03-07T05:24:30.777Z,72.74
2023-03-07T05:25:35.410Z,72.62
2023-03-07T05:26:39.098Z,72.34
2023-03-07T05:27:43.276Z,72.25
2023-03-07T05:28:47.690Z,72.61
2023-03-07T05:29:51.720Z,72.24
2023-03-07T05:30:55.958Z,72.27
2023-03-07T05:31:59.642Z,72.54
2023-03-07T05:33:03.618Z,71.97
2023-03-07T05:34:12.893Z,72.12
2023-03-07T05:35:16.866Z,72.17
2023-03-07T05:36:20.784Z,72.06
2023-03-07T05:37:24.753Z,71.96
2023-03-07T05:38:28.999Z,71.88
2023-03-07T05:39:32.599Z,71.99
2023-03-07T05:40:37.127Z,71.86
2023-03-07T05:41:40.740Z,71.81
2023-03-07T05:42:44.825Z,71.41
2023-03-07T05:43:48.481Z,71.62
2023-03-07T05:44:52.268Z,71.53
2023-03-07T05:45:55.988Z,71.46
2023-03-07T05:47:00.079Z,71.67
2023-03-07T05:48:04.092Z,71.46
2023-03-07T05:49:11.040Z,71.69
2023-03-07T05:50:14.974Z,71.36
2023-03-07T05:51:18.663Z,71.44
2023-03-07T05:52:22.461Z,71.48
2023-03-07T05:53:26.663Z,71.55
2023-03-07T05:54:31.077Z,71.72
2023-03-07T05:55:35.252Z,71.61
2023-03-07T05:56:39.123Z,71.60
2023-03-07T05:57:43.357Z,71.64
2023-03-07T05:58:46.990Z,71.65
2023-03-07T05:59:50.968Z,71.35
2023-03-07T06:00:55.054Z,71.44
2023-03-07T06:01:59.060Z,71.47
2023-03-07T06:03:08.711Z,71.23
2023-03-07T06:04:13.090Z,71.33
2023-03-07T06:05:17.039Z,71.14
2023-03-07T06:06:21.034Z,71.04
2023-03-07T06:07:25.466Z,70.87
2023-03-07T06:08:29.910Z,70.79
2023-03-07T06:09:34.507Z,70.85
2023-03-07T06:10:40.342Z,70.99
2023-03-07T06:11:44.312Z,71.05
2023-03-07T06:12:53.699Z,70.78
2023-03-07T06:13:58.063Z,70.99
2023-03-07T06:15:02.633Z,70.79
2023-03-07T06:16:10.971Z,70.85
2023-03-07T06:17:14.666Z,70.32
2023-03-07T06:18:19.458Z,70.28
2023-03-07T06:19:23.943Z,70.32
2023-03-07T06:20:28.534Z,70.19
2023-03-07T06:21:32.405Z,70.05
2023-03-07T06:22:38.544Z,70.49
2023-03-07T06:23:43.401Z,70.30
2023-03-07T06:24:47.486Z,70.00
2023-03-07T06:25:51.309Z,70.15
2023-03-07T06:26:54.911Z,69.85
2023-03-07T06:28:01.109Z,69.66
2023-03-07T06:29:08.944Z,69.82
2023-03-07T06:30:13.611Z,69.89
2023-03-07T06:31:19.790Z,69.37
2023-03-07T06:32:23.535Z,69.74
2023-03-07T06:33:27.467Z,69.42
2023-03-07T06:34:31.691Z,69.26
2023-03-07T06:35:40.080Z,68.90
2023-03-07T06:36:43.768Z,69.21
2023-03-07T06:37:47.835Z,68.82
2023-03-07T06:38:51.892Z,68.57
2023-03-07T06:39:55.893Z,68.60
2023-03-07T06:41:00.026Z,68.50
2023-03-07T06:42:03.815Z,68.31
2023-03-07T06:43:12.114Z,68.42
2023-03-07T06:44:18.909Z,68.06
2023-03-07T06:45:22.530Z,67.70
2023-03-07T06:46:26.276Z,67.67
2023-03-07T06:47:30.186Z,67.30
2023-03-07T06:48:36.185Z,67.45
2023-03-07T06:49:43.066Z,67.30
2023-03-07T06:50:47.823Z,67.25
2023-03-07T06:51:52.899Z,67.22
2023-03-07T06:52:57.974Z,66.81
2023-03-07T06:54:01.856Z,66.91
2023-03-07T06:55:09.254Z,66.91
2023-03-07T06:56:13.574Z,66.39
2023-03-07T06:57:17.761Z,66.08
2023-03-07T06:58:21.857Z,65.97
2023-03-07T06:59:25.489Z,66.02
2023-03-07T07:00:29.605Z,66.12
2023-03-07T07:01:35.871Z,65.70
2023-03-07T07:02:40.305Z,65.89
2023-03-07T07:03:44.765Z,65.47
2023-03-07T07:04:49.036Z,65.13
2023-03-07T07:05:52.869Z,64.97
2023-03-07T07:06:56.466Z,64.94
2023-03-07T07:08:00.990Z,64.93
2023-03-07T07:09:07.131Z,63.41
2023-03-07T07:10:13.685Z,64.52
2023-03-07T07:11:17.382Z,64.15
2023-03-07T07:12:21.910Z,64.23
2023-03-07T07:13:25.827Z,64.25
2023-03-07T07:14:29.591Z,63.91
2023-03-07T07:15:33.879Z,63.91
2023-03-07T07:16:37.678Z,62.74
2023-03-07T07:17:41.409Z,63.14
2023-03-07T07:18:45.905Z,63.56
2023-03-07T07:19:49.687Z,62.71
2023-03-07T07:20:56.939Z,63.27
2023-03-07T07:22:00.975Z,63.51
2023-03-07T07:23:04.645Z,63.05
2023-03-07T07:24:13.247Z,62.74
2023-03-07T07:25:17.256Z,62.72
2023-03-07T07:26:20.850Z,61.79
2023-03-07T07:27:24.633Z,62.01
2023-03-07T07:28:28.534Z,61.34
2023-03-07T07:29:32.580Z,60.81
2023-03-07T07:30:36.329Z,60.24
2023-03-07T07:31:40.167Z,60.12
2023-03-07T07:32:45.223Z,59.97
2023-03-07T07:33:48.993Z,59.27
2023-03-07T07:34:52.669Z,58.57
2023-03-07T07:35:56.418Z,58.03
2023-03-07T07:37:00.263Z,57.83
2023-03-07T07:38:05.670Z,57.14
2023-03-07T07:39:11.654Z,56.29
2023-03-07T07:40:15.435Z,54.50
2023-03-07T07:41:19.243Z,53.38
2023-03-07T07:42:23.688Z,52.97
2023-03-07T07:43:27.362Z,51.82
2023-03-07T07:44:31.967Z,50.58
2023-03-07T07:45:40.888Z,50.12
2023-03-07T07:46:44.994Z,48.95
2023-03-07T07:47:50.597Z,49.03
2023-03-07T07:48:56.156Z,48.45
2023-03-07T07:50:00.052Z,47.74
2023-03-07T07:51:12.450Z,46.86
2023-03-07T07:52:22.433Z,46.06
2023-03-07T07:53:26.041Z,44.51
2023-03-07T07:54:30.029Z,45.61
2023-03-07T07:55:33.901Z,45.04
2023-03-07T07:56:37.777Z,44.59
2023-03-07T07:57:43.062Z,44.11
2023-03-07T07:58:48.545Z,43.60
2023-03-07T07:59:52.645Z,42.51
2023-03-07T08:00:57.002Z,41.19
2023-03-07T08:02:02.098Z,40.28
2023-03-07T08:03:11.919Z,41.16
2023-03-07T08:04:16.448Z,39.90
2023-03-07T08:05:22.617Z,39.29
2023-03-07T08:06:28.508Z,39.04
2023-03-07T08:07:35.480Z,39.03
2023-03-07T08:08:39.965Z,38.42
2023-03-07T08:09:46.688Z,38.47
2023-03-07T08:10:50.399Z,38.23
2023-03-07T08:11:54.427Z,38.05
2023-03-07T08:12:58.258Z,39.08
2023-03-07T08:14:03.862Z,38.52
2023-03-07T08:15:11.734Z,37.61
2023-03-07T08:16:20.101Z,38.25
2023-03-07T08:17:25.182Z,38.22
2023-03-07T08:18:31.310Z,37.68
2023-03-07T08:19:35.450Z,37.95
2023-03-07T08:20:41.358Z,37.42
2023-03-07T08:21:45.047Z,37.34
2023-03-07T08:22:50.759Z,36.25
2023-03-07T08:23:55.916Z,35.70
2023-03-07T08:25:01.430Z,35.43
2023-03-07T08:26:10.767Z,35.51
2023-03-07T08:27:14.570Z,35.94
2023-03-07T08:28:18.435Z,35.37
2023-03-07T08:29:22.952Z,35.73
2023-03-07T08:30:29.958Z,35.32
2023-03-07T08:31:44.482Z,35.89
2023-03-07T08:32:53.912Z,34.93
2023-03-07T08:33:57.682Z,34.60
2023-03-07T08:35:01.810Z,34.67
2023-03-07T08:36:12.580Z,33.63
2023-03-07T08:37:16.780Z,33.70
2023-03-07T08:38:20.638Z,33.33
2023-03-07T08:39:25.496Z,33.61
2023-03-07T08:40:31.196Z,33.53
2023-03-07T08:41:35.052Z,33.07
2023-03-07T08:42:39.033Z,33.26
2023-03-07T08:43:48.668Z,32.75
2023-03-07T08:44:52.737Z,33.15
2023-03-07T08:45:59.281Z,32.90
2023-03-07T08:47:03.499Z,33.12
2023-03-07T08:48:11.106Z,33.04
2023-03-07T08:49:15.267Z,33.21
2023-03-07T08:50:19.725Z,32.98
2023-03-07T08:51:23.425Z,33.20
2023-03-07T08:52:27.104Z,33.10
2023-03-07T08:53:30.702Z,33.32
2023-03-07T08:54:34.590Z,33.64
2023-03-07T08:55:43.549Z,33.44
2023-03-07T08:56:47.796Z,33.84
2023-03-07T08:57:51.659Z,34.14
2023-03-07T08:58:55.422Z,33.71
2023-03-07T09:00:01.610Z,33.90
2023-03-07T09:01:08.825Z,34.24
2023-03-07T09:02:12.984Z,33.79
2023-03-07T09:03:16.745Z,33.67
2023-03-07T09:04:20.600Z,33.81
2023-03-07T09:05:25.170Z,33.81
2023-03-07T09:06:29.381Z,34.40
2023-03-07T09:07:34.152Z,34.46
2023-03-07T09:08:37.876Z,35.07
2023-03-07T09:09:41.775Z,35.56
2023-03-07T09:10:45.798Z,35.92
2023-03-07T09:11:49.548Z,36.33
2023-03-07T09:12:55.408Z,36.68
2023-03-07T09:13:59.256Z,37.18
2023-03-07T09:15:03.226Z,37.74
2023-03-07T09:16:08.383Z,38.23
2023-03-07T09:17:13.422Z,38.41
2023-03-07T09:18:17.233Z,38.50
2023-03-07T09:19:20.969Z,38.52
2023-03-07T09:20:25.007Z,38.61
2023-03-07T09:21:28.902Z,39.08
2023-03-07T09:22:33.149Z,39.52
2023-03-07T09:23:36.962Z,39.77
2023-03-07T09:24:40.815Z,40.02
2023-03-07T09:25:44.868Z,39.94
2023-03-07T09:26:49.027Z,40.06
2023-03-07T09:27:55.620Z,40.31
2023-03-07T09:28:59.676Z,40.06
2023-03-07T09:30:03.981Z,40.42
2023-03-07T09:31:13.923Z,40.25
2023-03-07T09:32:17.968Z,40.87
2023-03-07T09:33:23.001Z,40.68
2023-03-07T09:34:26.897Z,40.42
2023-03-07T09:35:30.695Z,40.76
2023-03-07T09:36:34.648Z,40.83
2023-03-07T09:37:38.664Z,40.91
2023-03-07T09:38:42.441Z,40.75
2023-03-07T09:39:50.063Z,40.91
2023-03-07T09:40:55.840Z,40.46
2023-03-07T09:42:45.482Z,40.21
2023-03-07T09:44:06.508Z,40.50
2023-03-07T09:45:39.255Z,40.88
2023-03-07T09:47:18.681Z,41.06
2023-03-07T09:49:04.647Z,41.75
2023-03-07T09:50:22.994Z,41.76
2023-03-07T09:51:41.386Z,41.24
2023-03-07T09:52:51.806Z,41.32
2023-03-07T09:54:14.213Z,41.03
2023-03-07T09:55:21.129Z,40.79
2023-03-07T09:56:52.009Z,41.14
2023-03-07T09:58:00.956Z,41.18
2023-03-07T09:59:36.926Z,41.16
2023-03-07T10:00:46.152Z,40.89
2023-03-07T10:02:02.067Z,40.97
2023-03-07T10:03:31.853Z,40.67
2023-03-07T10:05:08.736Z,41.24
2023-03-07T10:06:25.611Z,41.05
2023-03-07T10:07:29.673Z,41.36
2023-03-07T10:08:38.191Z,40.77
2023-03-07T10:09:44.243Z,40.89
2023-03-07T10:11:17.211Z,40.98
2023-03-07T10:12:54.427Z,41.10
2023-03-07T10:14:17.117Z,41.25
2023-03-07T10:15:35.821Z,41.77
2023-03-07T10:16:56.407Z,42.23
2023-03-07T10:18:42.982Z,42.49
2023-03-07T10:19:52.891Z,42.43
2023-03-07T10:21:18.839Z,42.33
2023-03-07T10:22:58.677Z,42.11
2023-03-07T10:24:49.719Z,41.93
2023-03-07T10:26:12.405Z,42.40
2023-03-07T10:27:17.342Z,41.96
2023-03-07T10:28:31.129Z,42.10
2023-03-07T10:29:54.504Z,42.22
2023-03-07T10:31:14.273Z,42.19
2023-03-07T10:32:47.273Z,42.01
2023-03-07T10:33:55.157Z,42.11
2023-03-07T10:35:24.432Z,42.43
2023-03-07T10:36:45.152Z,42.17
2023-03-07T10:38:00.174Z,42.38
2023-03-07T10:39:36.520Z,42.32
2023-03-07T10:41:14.117Z,42.21
2023-03-07T10:42:24.504Z,42.60
2023-03-07T10:43:33.700Z,42.25
2023-03-07T10:44:37.899Z,42.15
2023-03-07T10:45:42.575Z,42.13
2023-03-07T10:46:55.885Z,42.04
2023-03-07T10:48:18.610Z,42.57
2023-03-07T10:49:30.857Z,43.03
2023-03-07T10:50:50.253Z,42.93
2023-03-07T10:52:25.963Z,43.08
2023-03-07T10:53:35.389Z,43.43
2023-03-07T10:54:41.732Z,43.77
2023-03-07T10:55:46.889Z,44.00
2023-03-07T10:57:10.977Z,44.52
2023-03-07T10:58:28.450Z,44.26
2023-03-07T10:59:32.375Z,43.84
2023-03-07T11:00:36.308Z,44.27
2023-03-07T11:01:59.208Z,44.05
2023-03-07T11:03:03.345Z,43.75
2023-03-07T11:04:30.352Z,43.53
2023-03-07T11:05:37.004Z,43.63
2023-03-07T11:06:55.876Z,43.90
2023-03-07T11:08:01.419Z,43.84
2023-03-07T11:09:34.136Z,44.04
2023-03-07T11:10:41.030Z,43.97
2023-03-07T11:11:52.665Z,43.83
2023-03-07T11:12:56.790Z,43.71
2023-03-07T11:14:14.831Z,43.74
2023-03-07T11:15:24.816Z,43.55
2023-03-07T11:16:28.512Z,43.82
2023-03-07T11:17:47.717Z,44.31
2023-03-07T11:18:52.023Z,44.33
2023-03-07T11:19:57.681Z,43.97
2023-03-07T11:21:01.533Z,44.51
2023-03-07T11:22:33.725Z,44.02
2023-03-07T11:23:37.643Z,44.33
2023-03-07T11:24:55.668Z,44.22
2023-03-07T11:26:23.105Z,44.58
2023-03-07T11:27:59.028Z,44.41
2023-03-07T11:29:14.184Z,44.25
2023-03-07T11:30:28.998Z,44.48
2023-03-07T11:31:47.218Z,44.75
2023-03-07T11:33:29.233Z,44.61
2023-03-07T11:35:03.109Z,44.95
2023-03-07T11:36:32.187Z,44.83
2023-03-07T11:37:54.224Z,44.90
2023-03-07T11:39:34.944Z,45.52
2023-03-07T11:41:31.196Z,45.37
2023-03-07T11:43:09.635Z,45.63
2023-03-07T11:45:00.949Z,45.24
2023-03-07T11:46:41.014Z,44.92
2023-03-07T11:48:25.874Z,44.99
2023-03-07T11:49:56.574Z,44.68
2023-03-07T11:51:03.495Z,44.54
2023-03-07T11:52:33.409Z,44.69
2023-03-07T11:54:08.340Z,44.59
2023-03-07T11:55:58.294Z,45.05
2023-03-07T11:57:51.474Z,44.81
2023-03-07T11:59:30.531Z,45.01
2023-03-07T12:00:49.823Z,45.34
2023-03-07T12:02:23.508Z,45.06
2023-03-07T12:03:48.485Z,45.27
2023-03-07T12:05:23.622Z,45.29
2023-03-07T12:07:08.690Z,45.53
2023-03-07T12:08:39.100Z,45.33
2023-03-07T12:10:02.405Z,45.13
2023-03-07T12:11:15.611Z,45.11
2023-03-07T12:12:54.908Z,44.97
2023-03-07T12:14:01.363Z,45.22
2023-03-07T12:15:47.925Z,44.68
2023-03-07T12:17:31.337Z,45.01
2023-03-07T12:19:24.348Z,44.73
2023-03-07T12:20:58.968Z,44.71
2023-03-07T12:22:29.014Z,45.16
2023-03-07T12:23:39.304Z,44.79
2023-03-07T12:25:17.810Z,45.10
2023-03-07T12:27:00.785Z,45.16
2023-03-07T12:28:21.863Z,45.15
2023-03-07T12:29:45.817Z,45.65
2023-03-07T12:31:10.702Z,45.45
2023-03-07T12:32:25.391Z,45.23
2023-03-07T12:33:50.972Z,45.30
2023-03-07T12:35:29.825Z,45.36
2023-03-07T12:36:36.385Z,45.03
2023-03-07T12:38:10.225Z,45.78
2023-03-07T12:39:31.436Z,45.99
2023-03-07T12:40:49.352Z,45.77
2023-03-07T12:42:15.788Z,45.81
2023-03-07T12:43:45.893Z,45.79
2023-03-07T12:45:49.289Z,45.85
2023-03-07T12:47:13.739Z,45.37
2023-03-07T12:48:38.458Z,45.32
2023-03-07T12:49:54.245Z,45.55
2023-03-07T12:51:16.038Z,45.60
2023-03-07T12:52:50.825Z,45.70
2023-03-07T12:54:27.904Z,45.92
2023-03-07T12:56:10.073Z,45.95
2023-03-07T12:57:26.893Z,45.77
2023-03-07T12:59:11.619Z,46.04
2023-03-07T13:00:23.098Z,46.29
2023-03-07T13:01:58.872Z,46.18
2023-03-07T13:03:07.028Z,46.13
2023-03-07T13:04:32.237Z,46.57
2023-03-07T13:05:39.650Z,46.58
2023-03-07T13:06:46.807Z,46.57
2023-03-07T13:07:52.213Z,46.77
2023-03-07T13:09:00.822Z,46.48
2023-03-07T13:10:08.350Z,46.36
2023-03-07T13:11:22.849Z,46.46
2023-03-07T13:12:31.323Z,46.38
2023-03-07T13:13:43.884Z,46.20
2023-03-07T13:15:16.517Z,45.75
2023-03-07T13:16:38.788Z,45.52
2023-03-07T13:17:42.479Z,45.29
2023-03-07T13:18:46.428Z,45.24
2023-03-07T13:19:57.182Z,45.51
2023-03-07T13:21:11.189Z,45.69
2023-03-07T13:22:18.126Z,45.79
2023-03-07T13:23:28.362Z,46.00
2023-03-07T13:24:40.547Z,45.59
2023-03-07T13:25:58.384Z,45.51
2023-03-07T13:27:18.436Z,46.43
2023-03-07T13:28:40.802Z,45.69
2023-03-07T13:30:07.879Z,46.07
2023-03-07T13:31:16.805Z,45.67
2023-03-07T13:32:51.309Z,45.57
2023-03-07T13:33:56.162Z,45.64
2023-03-07T13:35:00.603Z,45.55
2023-03-07T13:36:04.733Z,45.31
2023-03-07T13:37:51.974Z,45.51
2023-03-07T13:38:58.500Z,45.25
2023-03-07T13:40:06.957Z,45.22
2023-03-07T13:41:13.692Z,45.62
2023-03-07T13:42:46.781Z,45.16
2023-03-07T13:43:53.676Z,45.18
2023-03-07T13:45:02.193Z,45.83
2023-03-07T13:46:38.472Z,45.71
2023-03-07T13:47:45.581Z,45.84
2023-03-07T13:48:49.227Z,45.93
2023-03-07T13:49:59.521Z,45.88
2023-03-07T13:51:07.184Z,45.60
2023-03-07T13:52:38.205Z,45.80
2023-03-07T13:53:53.099Z,46.28
2023-03-07T13:55:00.961Z,45.96
2023-03-07T13:56:17.681Z,46.04
2023-03-07T13:57:37.135Z,45.99
2023-03-07T13:59:14.555Z,45.97
2023-03-07T14:00:37.867Z,46.06
2023-03-07T14:02:04.645Z,45.99
2023-03-07T14:03:32.673Z,46.01
2023-03-07T14:04:56.175Z,46.15
2023-03-07T14:06:09.960Z,46.01
2023-03-07T14:07:35.083Z,46.15
2023-03-07T14:08:39.655Z,46.57
2023-03-07T14:09:49.452Z,46.62
2023-03-07T14:10:57.483Z,46.64
2023-03-07T14:12:20.826Z,46.38
2023-03-07T14:14:05.770Z,46.87
2023-03-07T14:15:49.503Z,46.76
2023-03-07T14:17:16.218Z,46.48
2023-03-07T14:18:30.047Z,46.63
2023-03-07T14:19:52.815Z,46.88
2023-03-07T14:21:27.493Z,46.76
2023-03-07T14:23:30.508Z,46.91
2023-03-07T14:24:52.606Z,46.96
2023-03-07T14:26:33.628Z,46.74
2023-03-07T14:28:02.258Z,46.84
2023-03-07T14:29:26.259Z,46.85
2023-03-07T14:30:33.885Z,46.76
2023-03-07T14:31:41.472Z,46.55
2023-03-07T14:32:45.167Z,46.94
2023-03-07T14:33:49.270Z,46.92
2023-03-07T14:34:54.304Z,46.88
2023-03-07T14:35:58.857Z,47.00
2023-03-07T14:37:09.242Z,47.02
2023-03-07T14:38:26.628Z,47.32
2023-03-07T14:40:11.086Z,47.05
2023-03-07T14:41:51.379Z,46.84
2023-03-07T14:43:22.876Z,46.84
2023-03-07T14:45:10.464Z,46.81
2023-03-07T14:46:52.698Z,46.94
2023-03-07T14:48:31.589Z,46.73
2023-03-07T14:49:50.081Z,46.70
2023-03-07T14:50:54.640Z,47.19
2023-03-07T14:51:59.264Z,47.03
2023-03-07T14:53:38.371Z,46.85
2023-03-07T14:54:47.652Z,46.53
2023-03-07T14:55:56.919Z,46.75
2023-03-07T14:57:02.199Z,46.72
2023-03-07T14:58:07.089Z,46.93
2023-03-07T14:59:27.700Z,46.99
2023-03-07T15:00:34.790Z,46.93
2023-03-07T15:01:43.027Z,46.78
2023-03-07T15:03:04.969Z,46.73
2023-03-07T15:04:34.029Z,46.92
2023-03-07T15:06:00.743Z,46.76
2023-03-07T15:07:11.579Z,47.06
2023-03-07T15:08:45.099Z,47.04
2023-03-07T15:09:48.974Z,47.25